sensor_id;sensor_type;location;lat;lon;timestamp;temperature;humidity
1129;DHT22;553;51.038;7.216;2023-04-16T00:01:26;8.50;99.90
1129;DHT22;553;51.038;7.216;2023-04-16T00:03:53;8.50;99.90
1129;DHT22;553;51.038;7.216;2023-04-16T00:06:21;8.40;99.90
1129;DHT22;553;51.038;7.216;2023-04-16T00:08:48;8.40;99.90
1129;DHT22;553;51.038;7.216;2023-04-16T00:11:16;8.30;99.90
1129;DHT22;553;51.038;7.216;2023-04-16T00:13:42;8.40;99.90
1129;DHT22;553;51.038;7.216;2023-04-16T00:16:09;8.40;99.90
1129;DHT22;553;51.038;7.216;2023-04-16T00:18:36;8.40;99.90
1129;DHT22;553;51.038;7.216;2023-04-16T00:21:02;8.40;99.90
1129;DHT22;553;51.038;7.216;2023-04-16T00:23:29;8.40;99.90
1129;DHT22;553;51.038;7.216;2023-04-16T00:25:56;8.50;99.90
1129;DHT22;553;51.038;7.216;2023-04-16T00:28:25;8.50;99.90
1129;DHT22;553;51.038;7.216;2023-04-16T00:30:53;8.50;99.90
1129;DHT22;553;51.038;7.216;2023-04-16T00:33:20;8.50;99.90
1129;DHT22;553;51.038;7.216;2023-04-16T00:35:47;8.50;99.90
1129;DHT22;553;51.038;7.216;2023-04-16T00:38:14;8.50;99.90
1129;DHT22;553;51.038;7.216;2023-04-16T00:40:41;8.50;99.90
1129;DHT22;553;51.038;7.216;2023-04-16T00:43:07;8.50;99.90
1129;DHT22;553;51.038;7.216;2023-04-16T00:45:35;8.50;99.90
1129;DHT22;553;51.038;7.216;2023-04-16T00:48:03;8.50;99.90
1129;DHT22;553;51.038;7.216;2023-04-16T00:50:30;8.50;99.90
1129;DHT22;553;51.038;7.216;2023-04-16T00:52:58;8.50;99.90
1129;DHT22;553;51.038;7.216;2023-04-16T00:55:25;8.50;99.90
1129;DHT22;553;51.038;7.216;2023-04-16T00:57:52;8.40;99.90
1129;DHT22;553;51.038;7.216;2023-04-16T01:00:19;8.40;99.90
1129;DHT22;553;51.038;7.216;2023-04-16T01:02:46;8.50;99.90
1129;DHT22;553;51.038;7.216;2023-04-16T01:05:13;8.50;99.90
1129;DHT22;553;51.038;7.216;2023-04-16T01:07:40;8.50;99.90
1129;DHT22;553;51.038;7.216;2023-04-16T01:10:07;8.50;99.90
1129;DHT22;553;51.038;7.216;2023-04-16T01:12:34;8.40;99.90
1129;DHT22;553;51.038;7.216;2023-04-16T01:15:01;8.50;99.90
1129;DHT22;553;51.038;7.216;2023-04-16T01:17:28;8.40;99.90
1129;DHT22;553;51.038;7.216;2023-04-16T01:19:58;8.40;99.90
1129;DHT22;553;51.038;7.216;2023-04-16T01:22:27;8.40;99.90
1129;DHT22;553;51.038;7.216;2023-04-16T01:24:54;8.50;99.90
1129;DHT22;553;51.038;7.216;2023-04-16T01:27:20;8.50;99.90
1129;DHT22;553;51.038;7.216;2023-04-16T01:29:47;8.50;99.90
1129;DHT22;553;51.038;7.216;2023-04-16T01:32:19;8.50;99.90
1129;DHT22;553;51.038;7.216;2023-04-16T01:34:46;8.50;99.90
1129;DHT22;553;51.038;7.216;2023-04-16T01:37:13;8.50;99.90
1129;DHT22;553;51.038;7.216;2023-04-16T01:39:39;8.50;99.90
1129;DHT22;553;51.038;7.216;2023-04-16T01:42:07;8.50;99.90
1129;DHT22;553;51.038;7.216;2023-04-16T01:44:33;8.50;99.90
1129;DHT22;553;51.038;7.216;2023-04-16T01:47:00;8.50;99.90
1129;DHT22;553;51.038;7.216;2023-04-16T01:49:28;8.40;99.90
1129;DHT22;553;51.038;7.216;2023-04-16T01:51:54;8.40;99.90
1129;DHT22;553;51.038;7.216;2023-04-16T01:54:22;8.50;99.90
1129;DHT22;553;51.038;7.216;2023-04-16T01:56:48;8.50;99.90
1129;DHT22;553;51.038;7.216;2023-04-16T01:59:15;8.50;99.90
1129;DHT22;553;51.038;7.216;2023-04-16T02:01:42;8.60;99.90
1129;DHT22;553;51.038;7.216;2023-04-16T02:04:11;8.60;99.90
1129;DHT22;553;51.038;7.216;2023-04-16T02:06:38;8.50;99.90
1129;DHT22;553;51.038;7.216;2023-04-16T02:09:04;8.50;99.90
1129;DHT22;553;51.038;7.216;2023-04-16T02:11:31;8.50;99.90
1129;DHT22;553;51.038;7.216;2023-04-16T02:13:58;8.60;99.90
1129;DHT22;553;51.038;7.216;2023-04-16T02:16:25;8.60;99.90
1129;DHT22;553;51.038;7.216;2023-04-16T02:18:57;8.60;99.90
1129;DHT22;553;51.038;7.216;2023-04-16T02:21:25;8.70;99.90
1129;DHT22;553;51.038;7.216;2023-04-16T02:23:52;8.50;99.90
1129;DHT22;553;51.038;7.216;2023-04-16T02:26:25;8.50;99.90
1129;DHT22;553;51.038;7.216;2023-04-16T02:28:54;8.50;99.90
1129;DHT22;553;51.038;7.216;2023-04-16T02:31:26;8.50;99.90
1129;DHT22;553;51.038;7.216;2023-04-16T02:33:55;8.50;99.90
1129;DHT22;553;51.038;7.216;2023-04-16T02:36:21;8.50;99.90
1129;DHT22;553;51.038;7.216;2023-04-16T02:38:48;8.50;99.90
1129;DHT22;553;51.038;7.216;2023-04-16T02:41:15;8.50;99.90
1129;DHT22;553;51.038;7.216;2023-04-16T02:43:42;8.60;99.90
1129;DHT22;553;51.038;7.216;2023-04-16T02:46:08;8.60;99.90
1129;DHT22;553;51.038;7.216;2023-04-16T02:48:35;8.50;99.90
1129;DHT22;553;51.038;7.216;2023-04-16T02:51:02;8.50;99.90
1129;DHT22;553;51.038;7.216;2023-04-16T02:53:28;8.60;99.90
1129;DHT22;553;51.038;7.216;2023-04-16T02:55:55;8.60;99.90
1129;DHT22;553;51.038;7.216;2023-04-16T02:58:23;8.60;99.90
1129;DHT22;553;51.038;7.216;2023-04-16T03:00:54;8.60;99.90
1129;DHT22;553;51.038;7.216;2023-04-16T03:03:20;8.60;99.90
1129;DHT22;553;51.038;7.216;2023-04-16T03:05:48;8.60;99.90
1129;DHT22;553;51.038;7.216;2023-04-16T03:08:15;8.60;99.90
1129;DHT22;553;51.038;7.216;2023-04-16T03:10:42;8.60;99.90
1129;DHT22;553;51.038;7.216;2023-04-16T03:13:08;8.60;99.90
1129;DHT22;553;51.038;7.216;2023-04-16T03:15:35;8.60;99.90
1129;DHT22;553;51.038;7.216;2023-04-16T03:18:02;8.60;99.90
1129;DHT22;553;51.038;7.216;2023-04-16T03:20:29;8.50;99.90
1129;DHT22;553;51.038;7.216;2023-04-16T03:22:56;8.50;99.90
1129;DHT22;553;51.038;7.216;2023-04-16T03:25:22;8.50;99.90
1129;DHT22;553;51.038;7.216;2023-04-16T03:27:50;8.40;99.90
1129;DHT22;553;51.038;7.216;2023-04-16T03:30:17;8.40;99.90
1129;DHT22;553;51.038;7.216;2023-04-16T03:32:44;8.50;99.90
1129;DHT22;553;51.038;7.216;2023-04-16T03:35:11;8.50;99.90
1129;DHT22;553;51.038;7.216;2023-04-16T03:37:38;8.50;99.90
1129;DHT22;553;51.038;7.216;2023-04-16T03:40:05;8.50;99.90
1129;DHT22;553;51.038;7.216;2023-04-16T03:42:33;8.50;99.90
1129;DHT22;553;51.038;7.216;2023-04-16T03:45:01;8.50;99.90
1129;DHT22;553;51.038;7.216;2023-04-16T03:47:27;8.50;99.90
1129;DHT22;553;51.038;7.216;2023-04-16T03:49:58;8.60;99.90
1129;DHT22;553;51.038;7.216;2023-04-16T03:52:25;8.60;99.90
1129;DHT22;553;51.038;7.216;2023-04-16T03:54:53;8.60;99.90
1129;DHT22;553;51.038;7.216;2023-04-16T03:57:26;8.50;99.90
1129;DHT22;553;51.038;7.216;2023-04-16T03:59:56;8.50;99.90
1129;DHT22;553;51.038;7.216;2023-04-16T04:02:25;8.50;99.90
1129;DHT22;553;51.038;7.216;2023-04-16T04:04:52;8.50;99.90
1129;DHT22;553;51.038;7.216;2023-04-16T04:07:19;8.50;99.90
1129;DHT22;553;51.038;7.216;2023-04-16T04:09:46;8.50;99.90
1129;DHT22;553;51.038;7.216;2023-04-16T04:12:13;8.50;99.90
1129;DHT22;553;51.038;7.216;2023-04-16T04:14:42;8.50;99.90
1129;DHT22;553;51.038;7.216;2023-04-16T04:17:08;8.50;99.90
1129;DHT22;553;51.038;7.216;2023-04-16T04:19:35;8.50;99.90
1129;DHT22;553;51.038;7.216;2023-04-16T04:22:06;8.50;99.90
1129;DHT22;553;51.038;7.216;2023-04-16T04:24:35;8.50;99.90
1129;DHT22;553;51.038;7.216;2023-04-16T04:27:02;8.50;99.90
1129;DHT22;553;51.038;7.216;2023-04-16T04:29:30;8.60;99.90
1129;DHT22;553;51.038;7.216;2023-04-16T04:31:57;8.60;99.90
1129;DHT22;553;51.038;7.216;2023-04-16T04:34:24;8.60;99.90
1129;DHT22;553;51.038;7.216;2023-04-16T04:36:54;8.70;99.90
1129;DHT22;553;51.038;7.216;2023-04-16T04:39:21;8.70;99.90
1129;DHT22;553;51.038;7.216;2023-04-16T04:41:49;8.70;99.90
1129;DHT22;553;51.038;7.216;2023-04-16T04:44:17;8.60;99.90
1129;DHT22;553;51.038;7.216;2023-04-16T04:46:44;8.70;99.90
1129;DHT22;553;51.038;7.216;2023-04-16T04:49:11;8.70;99.90
1129;DHT22;553;51.038;7.216;2023-04-16T04:51:38;8.70;99.90
1129;DHT22;553;51.038;7.216;2023-04-16T04:54:05;8.70;99.90
1129;DHT22;553;51.038;7.216;2023-04-16T04:56:32;8.70;99.90
1129;DHT22;553;51.038;7.216;2023-04-16T04:58:58;8.70;99.90
1129;DHT22;553;51.038;7.216;2023-04-16T05:01:25;8.70;99.90
1129;DHT22;553;51.038;7.216;2023-04-16T05:03:52;8.80;99.90
1129;DHT22;553;51.038;7.216;2023-04-16T05:06:18;8.70;99.90
1129;DHT22;553;51.038;7.216;2023-04-16T05:08:45;8.80;99.90
1129;DHT22;553;51.038;7.216;2023-04-16T05:11:11;8.80;99.90
1129;DHT22;553;51.038;7.216;2023-04-16T05:13:38;8.80;99.90
1129;DHT22;553;51.038;7.216;2023-04-16T05:16:05;8.70;99.90
1129;DHT22;553;51.038;7.216;2023-04-16T05:18:32;8.80;99.90
1129;DHT22;553;51.038;7.216;2023-04-16T05:20:59;8.80;99.90
1129;DHT22;553;51.038;7.216;2023-04-16T05:23:26;8.70;99.90
1129;DHT22;553;51.038;7.216;2023-04-16T05:25:53;8.70;99.90
1129;DHT22;553;51.038;7.216;2023-04-16T05:28:20;8.70;99.90
1129;DHT22;553;51.038;7.216;2023-04-16T05:30:46;8.80;99.90
1129;DHT22;553;51.038;7.216;2023-04-16T05:33:13;8.70;99.90
1129;DHT22;553;51.038;7.216;2023-04-16T05:35:40;8.70;99.90
1129;DHT22;553;51.038;7.216;2023-04-16T05:38:06;8.70;99.90
1129;DHT22;553;51.038;7.216;2023-04-16T05:40:34;8.80;99.90
1129;DHT22;553;51.038;7.216;2023-04-16T05:43:00;8.80;99.90
1129;DHT22;553;51.038;7.216;2023-04-16T05:45:27;8.80;99.90
1129;DHT22;553;51.038;7.216;2023-04-16T05:47:54;8.80;99.90
1129;DHT22;553;51.038;7.216;2023-04-16T05:50:20;8.80;99.90
1129;DHT22;553;51.038;7.216;2023-04-16T05:52:47;8.80;99.90
1129;DHT22;553;51.038;7.216;2023-04-16T05:55:14;8.80;99.90
1129;DHT22;553;51.038;7.216;2023-04-16T05:57:40;8.80;99.90
1129;DHT22;553;51.038;7.216;2023-04-16T06:00:07;8.80;99.90
1129;DHT22;553;51.038;7.216;2023-04-16T06:02:40;8.80;99.90
1129;DHT22;553;51.038;7.216;2023-04-16T06:05:07;8.80;99.90
1129;DHT22;553;51.038;7.216;2023-04-16T06:07:34;8.80;99.90
1129;DHT22;553;51.038;7.216;2023-04-16T06:10:01;8.80;99.90
1129;DHT22;553;51.038;7.216;2023-04-16T06:12:27;8.80;99.90
1129;DHT22;553;51.038;7.216;2023-04-16T06:14:54;8.80;99.90
1129;DHT22;553;51.038;7.216;2023-04-16T06:17:21;8.90;99.90
1129;DHT22;553;51.038;7.216;2023-04-16T06:19:48;8.80;99.90
1129;DHT22;553;51.038;7.216;2023-04-16T06:22:15;8.80;99.90
1129;DHT22;553;51.038;7.216;2023-04-16T06:24:41;8.90;99.90
1129;DHT22;553;51.038;7.216;2023-04-16T06:27:08;8.80;99.90
1129;DHT22;553;51.038;7.216;2023-04-16T06:29:35;8.80;99.90
1129;DHT22;553;51.038;7.216;2023-04-16T06:32:07;8.90;99.90
1129;DHT22;553;51.038;7.216;2023-04-16T06:34:35;8.90;99.90
1129;DHT22;553;51.038;7.216;2023-04-16T06:37:01;8.90;99.90
1129;DHT22;553;51.038;7.216;2023-04-16T06:39:28;8.90;99.90
1129;DHT22;553;51.038;7.216;2023-04-16T06:41:55;8.90;99.90
1129;DHT22;553;51.038;7.216;2023-04-16T06:44:22;8.90;99.90
1129;DHT22;553;51.038;7.216;2023-04-16T06:46:49;8.90;99.90
1129;DHT22;553;51.038;7.216;2023-04-16T06:49:16;8.90;99.90
1129;DHT22;553;51.038;7.216;2023-04-16T06:51:43;8.90;99.90
1129;DHT22;553;51.038;7.216;2023-04-16T06:54:10;8.90;99.90
1129;DHT22;553;51.038;7.216;2023-04-16T06:56:36;9.00;99.90
1129;DHT22;553;51.038;7.216;2023-04-16T06:59:03;9.00;99.90
1129;DHT22;553;51.038;7.216;2023-04-16T07:01:30;9.00;99.90
1129;DHT22;553;51.038;7.216;2023-04-16T07:03:57;9.00;99.90
1129;DHT22;553;51.038;7.216;2023-04-16T07:06:24;9.00;99.90
1129;DHT22;553;51.038;7.216;2023-04-16T07:08:52;9.10;99.90
1129;DHT22;553;51.038;7.216;2023-04-16T07:11:19;9.10;99.90
1129;DHT22;553;51.038;7.216;2023-04-16T07:13:46;9.10;99.90
1129;DHT22;553;51.038;7.216;2023-04-16T07:16:13;9.10;99.90
1129;DHT22;553;51.038;7.216;2023-04-16T07:18:39;9.10;99.90
1129;DHT22;553;51.038;7.216;2023-04-16T07:21:06;9.10;99.90
1129;DHT22;553;51.038;7.216;2023-04-16T07:23:33;9.10;99.90
1129;DHT22;553;51.038;7.216;2023-04-16T07:25:59;9.10;99.90
1129;DHT22;553;51.038;7.216;2023-04-16T07:28:26;9.20;99.90
1129;DHT22;553;51.038;7.216;2023-04-16T07:30:53;9.20;99.90
1129;DHT22;553;51.038;7.216;2023-04-16T07:33:19;9.20;99.90
1129;DHT22;553;51.038;7.216;2023-04-16T07:35:46;9.10;99.90
1129;DHT22;553;51.038;7.216;2023-04-16T07:38:13;9.10;99.90
1129;DHT22;553;51.038;7.216;2023-04-16T07:40:41;9.60;99.90
1129;DHT22;553;51.038;7.216;2023-04-16T07:43:08;9.70;99.90
1129;DHT22;553;51.038;7.216;2023-04-16T07:45:35;9.60;99.90
1129;DHT22;553;51.038;7.216;2023-04-16T07:48:02;9.50;99.90
1129;DHT22;553;51.038;7.216;2023-04-16T07:50:29;9.50;99.90
1129;DHT22;553;51.038;7.216;2023-04-16T07:52:56;9.50;99.90
1129;DHT22;553;51.038;7.216;2023-04-16T07:55:23;9.40;99.90
1129;DHT22;553;51.038;7.216;2023-04-16T07:57:49;9.50;99.90
1129;DHT22;553;51.038;7.216;2023-04-16T08:00:16;9.50;99.90
1129;DHT22;553;51.038;7.216;2023-04-16T08:02:43;9.40;99.90
1129;DHT22;553;51.038;7.216;2023-04-16T08:05:12;9.40;99.90
1129;DHT22;553;51.038;7.216;2023-04-16T08:07:39;9.40;99.90
1129;DHT22;553;51.038;7.216;2023-04-16T08:10:06;9.40;99.90
1129;DHT22;553;51.038;7.216;2023-04-16T08:12:33;9.40;99.90
1129;DHT22;553;51.038;7.216;2023-04-16T08:15:00;9.30;99.90
1129;DHT22;553;51.038;7.216;2023-04-16T08:17:26;9.40;99.90
1129;DHT22;553;51.038;7.216;2023-04-16T08:19:54;9.50;99.90
1129;DHT22;553;51.038;7.216;2023-04-16T08:22:21;9.40;99.90
1129;DHT22;553;51.038;7.216;2023-04-16T08:24:48;9.50;99.90
1129;DHT22;553;51.038;7.216;2023-04-16T08:27:15;9.60;99.90
1129;DHT22;553;51.038;7.216;2023-04-16T08:29:46;9.50;99.90
1129;DHT22;553;51.038;7.216;2023-04-16T08:32:13;9.60;99.90
1129;DHT22;553;51.038;7.216;2023-04-16T08:34:40;9.60;99.90
1129;DHT22;553;51.038;7.216;2023-04-16T08:37:07;9.60;99.90
1129;DHT22;553;51.038;7.216;2023-04-16T08:39:34;9.70;99.90
1129;DHT22;553;51.038;7.216;2023-04-16T08:42:04;9.80;99.90
1129;DHT22;553;51.038;7.216;2023-04-16T08:44:33;10.00;99.90
1129;DHT22;553;51.038;7.216;2023-04-16T08:47:00;10.00;99.90
1129;DHT22;553;51.038;7.216;2023-04-16T08:49:28;10.10;99.90
1129;DHT22;553;51.038;7.216;2023-04-16T08:51:55;10.10;99.90
1129;DHT22;553;51.038;7.216;2023-04-16T08:56:51;10.10;99.90
1129;DHT22;553;51.038;7.216;2023-04-16T08:59:19;10.20;99.90
1129;DHT22;553;51.038;7.216;2023-04-16T09:01:45;10.30;99.90
1129;DHT22;553;51.038;7.216;2023-04-16T09:04:14;10.30;99.90
1129;DHT22;553;51.038;7.216;2023-04-16T09:06:42;10.30;99.90
1129;DHT22;553;51.038;7.216;2023-04-16T09:09:10;10.20;99.90
1129;DHT22;553;51.038;7.216;2023-04-16T09:11:37;10.30;99.90
1129;DHT22;553;51.038;7.216;2023-04-16T09:14:08;10.30;99.90
1129;DHT22;553;51.038;7.216;2023-04-16T09:16:35;10.30;99.90
1129;DHT22;553;51.038;7.216;2023-04-16T09:19:02;10.30;99.90
1129;DHT22;553;51.038;7.216;2023-04-16T09:21:29;10.40;99.90
1129;DHT22;553;51.038;7.216;2023-04-16T09:23:57;10.40;99.90
1129;DHT22;553;51.038;7.216;2023-04-16T09:26:24;10.50;99.90
1129;DHT22;553;51.038;7.216;2023-04-16T09:28:51;10.60;99.90
1129;DHT22;553;51.038;7.216;2023-04-16T09:31:18;10.70;99.90
1129;DHT22;553;51.038;7.216;2023-04-16T09:34:05;10.70;99.90
1129;DHT22;553;51.038;7.216;2023-04-16T09:36:33;10.70;99.90
1129;DHT22;553;51.038;7.216;2023-04-16T09:39:00;10.70;99.90
1129;DHT22;553;51.038;7.216;2023-04-16T09:41:29;10.70;99.90
1129;DHT22;553;51.038;7.216;2023-04-16T09:44:00;10.70;99.90
1129;DHT22;553;51.038;7.216;2023-04-16T09:46:33;10.70;99.90
1129;DHT22;553;51.038;7.216;2023-04-16T09:49:13;11.00;99.90
1129;DHT22;553;51.038;7.216;2023-04-16T09:51:42;11.00;99.90
1129;DHT22;553;51.038;7.216;2023-04-16T09:54:09;11.00;99.90
1129;DHT22;553;51.038;7.216;2023-04-16T09:56:41;10.90;99.90
1129;DHT22;553;51.038;7.216;2023-04-16T09:59:20;10.90;99.90
1129;DHT22;553;51.038;7.216;2023-04-16T10:01:48;11.00;99.90
1129;DHT22;553;51.038;7.216;2023-04-16T10:04:15;11.10;99.90
1129;DHT22;553;51.038;7.216;2023-04-16T10:06:42;11.10;99.90
1129;DHT22;553;51.038;7.216;2023-04-16T10:09:09;11.10;99.90
1129;DHT22;553;51.038;7.216;2023-04-16T10:11:36;11.00;99.90
1129;DHT22;553;51.038;7.216;2023-04-16T10:14:04;11.00;99.90
1129;DHT22;553;51.038;7.216;2023-04-16T10:16:31;11.00;99.90
1129;DHT22;553;51.038;7.216;2023-04-16T10:18:58;11.00;99.90
1129;DHT22;553;51.038;7.216;2023-04-16T10:21:25;11.00;99.90
1129;DHT22;553;51.038;7.216;2023-04-16T10:23:59;11.10;99.90
1129;DHT22;553;51.038;7.216;2023-04-16T10:26:26;11.20;99.90
1129;DHT22;553;51.038;7.216;2023-04-16T10:28:54;11.30;99.90
1129;DHT22;553;51.038;7.216;2023-04-16T10:31:22;11.40;99.90
1129;DHT22;553;51.038;7.216;2023-04-16T10:33:49;11.40;99.90
1129;DHT22;553;51.038;7.216;2023-04-16T10:36:22;11.60;99.90
1129;DHT22;553;51.038;7.216;2023-04-16T10:38:49;11.50;99.90
1129;DHT22;553;51.038;7.216;2023-04-16T10:41:20;11.50;99.90
1129;DHT22;553;51.038;7.216;2023-04-16T10:43:49;11.50;99.90
1129;DHT22;553;51.038;7.216;2023-04-16T10:46:24;11.60;99.90
1129;DHT22;553;51.038;7.216;2023-04-16T10:48:53;11.60;99.90
1129;DHT22;553;51.038;7.216;2023-04-16T10:51:31;11.60;99.90
1129;DHT22;553;51.038;7.216;2023-04-16T10:54:20;11.60;99.90
1129;DHT22;553;51.038;7.216;2023-04-16T10:56:48;11.60;99.90
1129;DHT22;553;51.038;7.216;2023-04-16T10:59:20;11.60;99.90
1129;DHT22;553;51.038;7.216;2023-04-16T11:01:54;11.60;99.90
1129;DHT22;553;51.038;7.216;2023-04-16T11:04:25;11.70;99.90
1129;DHT22;553;51.038;7.216;2023-04-16T11:07:06;11.60;99.90
1129;DHT22;553;51.038;7.216;2023-04-16T11:12:39;11.70;99.90
1129;DHT22;553;51.038;7.216;2023-04-16T11:15:07;11.70;99.90
1129;DHT22;553;51.038;7.216;2023-04-16T11:20:20;11.80;99.90
1129;DHT22;553;51.038;7.216;2023-04-16T11:22:48;11.80;99.90
1129;DHT22;553;51.038;7.216;2023-04-16T11:25:22;11.80;99.90
1129;DHT22;553;51.038;7.216;2023-04-16T11:27:49;12.00;99.90
1129;DHT22;553;51.038;7.216;2023-04-16T11:30:17;12.00;99.90
1129;DHT22;553;51.038;7.216;2023-04-16T11:32:44;12.00;99.90
1129;DHT22;553;51.038;7.216;2023-04-16T11:35:18;12.00;99.90
1129;DHT22;553;51.038;7.216;2023-04-16T11:37:45;12.00;99.90
1129;DHT22;553;51.038;7.216;2023-04-16T11:40:13;12.10;99.90
1129;DHT22;553;51.038;7.216;2023-04-16T11:42:41;12.30;99.90
1129;DHT22;553;51.038;7.216;2023-04-16T11:45:10;12.40;99.90
1129;DHT22;553;51.038;7.216;2023-04-16T11:47:45;12.60;99.90
1129;DHT22;553;51.038;7.216;2023-04-16T11:52:50;12.70;99.90
1129;DHT22;553;51.038;7.216;2023-04-16T11:55:17;12.70;99.90
1129;DHT22;553;51.038;7.216;2023-04-16T11:57:44;12.60;99.50
1129;DHT22;553;51.038;7.216;2023-04-16T12:00:12;12.60;99.60
1129;DHT22;553;51.038;7.216;2023-04-16T12:02:44;12.50;99.30
1129;DHT22;553;51.038;7.216;2023-04-16T12:05:32;12.50;99.30
1129;DHT22;553;51.038;7.216;2023-04-16T12:08:01;12.40;99.30
1129;DHT22;553;51.038;7.216;2023-04-16T12:10:29;12.40;99.80
1129;DHT22;553;51.038;7.216;2023-04-16T12:13:13;12.50;99.90
1129;DHT22;553;51.038;7.216;2023-04-16T12:15:47;12.50;99.70
1129;DHT22;553;51.038;7.216;2023-04-16T12:18:15;12.60;99.90
1129;DHT22;553;51.038;7.216;2023-04-16T12:20:43;12.70;99.80
1129;DHT22;553;51.038;7.216;2023-04-16T12:23:28;12.80;99.90
1129;DHT22;553;51.038;7.216;2023-04-16T12:25:56;13.00;97.80
1129;DHT22;553;51.038;7.216;2023-04-16T12:28:33;13.10;98.30
1129;DHT22;553;51.038;7.216;2023-04-16T12:31:01;13.30;97.30
1129;DHT22;553;51.038;7.216;2023-04-16T12:33:28;13.30;96.90
1129;DHT22;553;51.038;7.216;2023-04-16T12:35:55;13.70;94.90
1129;DHT22;553;51.038;7.216;2023-04-16T12:38:22;13.50;95.40
1129;DHT22;553;51.038;7.216;2023-04-16T12:40:50;13.50;95.00
1129;DHT22;553;51.038;7.216;2023-04-16T12:43:17;13.50;95.00
1129;DHT22;553;51.038;7.216;2023-04-16T12:45:45;13.40;94.40
1129;DHT22;553;51.038;7.216;2023-04-16T12:48:12;13.30;95.70
1129;DHT22;553;51.038;7.216;2023-04-16T12:50:38;13.20;95.90
1129;DHT22;553;51.038;7.216;2023-04-16T12:53:05;13.10;94.90
1129;DHT22;553;51.038;7.216;2023-04-16T12:55:32;13.00;94.50
1129;DHT22;553;51.038;7.216;2023-04-16T12:58:00;13.00;95.10
1129;DHT22;553;51.038;7.216;2023-04-16T13:00:27;13.00;94.80
1129;DHT22;553;51.038;7.216;2023-04-16T13:02:54;13.00;94.80
1129;DHT22;553;51.038;7.216;2023-04-16T13:05:21;13.10;94.20
1129;DHT22;553;51.038;7.216;2023-04-16T13:07:48;13.20;94.00
1129;DHT22;553;51.038;7.216;2023-04-16T13:10:14;13.30;94.50
1129;DHT22;553;51.038;7.216;2023-04-16T13:12:42;13.40;95.30
1129;DHT22;553;51.038;7.216;2023-04-16T13:15:08;13.60;94.30
1129;DHT22;553;51.038;7.216;2023-04-16T13:17:36;13.60;93.70
1129;DHT22;553;51.038;7.216;2023-04-16T13:20:03;13.60;94.10
1129;DHT22;553;51.038;7.216;2023-04-16T13:22:30;13.60;93.00
1129;DHT22;553;51.038;7.216;2023-04-16T13:24:57;13.60;92.80
1129;DHT22;553;51.038;7.216;2023-04-16T13:27:23;13.50;93.10
1129;DHT22;553;51.038;7.216;2023-04-16T13:29:50;13.60;92.70
1129;DHT22;553;51.038;7.216;2023-04-16T13:32:17;13.50;93.00
1129;DHT22;553;51.038;7.216;2023-04-16T13:34:44;13.50;93.30
1129;DHT22;553;51.038;7.216;2023-04-16T13:37:11;13.50;93.30
1129;DHT22;553;51.038;7.216;2023-04-16T13:39:37;13.50;93.50
1129;DHT22;553;51.038;7.216;2023-04-16T13:42:04;13.50;93.70
1129;DHT22;553;51.038;7.216;2023-04-16T13:44:31;13.60;94.00
1129;DHT22;553;51.038;7.216;2023-04-16T13:46:58;13.70;93.20
1129;DHT22;553;51.038;7.216;2023-04-16T13:49:26;13.70;92.90
1129;DHT22;553;51.038;7.216;2023-04-16T13:51:53;13.60;93.70
1129;DHT22;553;51.038;7.216;2023-04-16T13:54:20;13.70;93.20
1129;DHT22;553;51.038;7.216;2023-04-16T13:56:49;13.80;93.40
1129;DHT22;553;51.038;7.216;2023-04-16T13:59:16;13.90;93.90
1129;DHT22;553;51.038;7.216;2023-04-16T14:01:42;14.10;93.60
1129;DHT22;553;51.038;7.216;2023-04-16T14:04:09;14.20;93.40
1129;DHT22;553;51.038;7.216;2023-04-16T14:06:36;14.20;92.70
1129;DHT22;553;51.038;7.216;2023-04-16T14:09:03;14.20;92.80
1129;DHT22;553;51.038;7.216;2023-04-16T14:11:30;14.20;92.30
1129;DHT22;553;51.038;7.216;2023-04-16T14:13:57;14.10;92.30
1129;DHT22;553;51.038;7.216;2023-04-16T14:16:23;14.00;92.00
1129;DHT22;553;51.038;7.216;2023-04-16T14:18:51;14.00;92.50
1129;DHT22;553;51.038;7.216;2023-04-16T14:21:18;13.90;92.50
1129;DHT22;553;51.038;7.216;2023-04-16T14:23:44;13.90;92.60
1129;DHT22;553;51.038;7.216;2023-04-16T14:26:11;13.90;92.20
1129;DHT22;553;51.038;7.216;2023-04-16T14:28:38;13.80;92.10
1129;DHT22;553;51.038;7.216;2023-04-16T14:31:06;13.80;92.50
1129;DHT22;553;51.038;7.216;2023-04-16T14:33:33;13.80;92.80
1129;DHT22;553;51.038;7.216;2023-04-16T14:36:00;13.80;93.30
1129;DHT22;553;51.038;7.216;2023-04-16T14:38:29;13.90;92.70
1129;DHT22;553;51.038;7.216;2023-04-16T14:40:56;13.90;92.00
1129;DHT22;553;51.038;7.216;2023-04-16T14:43:23;13.90;92.60
1129;DHT22;553;51.038;7.216;2023-04-16T14:45:49;13.90;92.70
1129;DHT22;553;51.038;7.216;2023-04-16T14:48:17;14.00;92.10
1129;DHT22;553;51.038;7.216;2023-04-16T14:50:43;13.90;91.90
1129;DHT22;553;51.038;7.216;2023-04-16T14:53:10;13.80;93.20
1129;DHT22;553;51.038;7.216;2023-04-16T14:55:37;13.90;93.10
1129;DHT22;553;51.038;7.216;2023-04-16T14:58:04;14.00;93.00
1129;DHT22;553;51.038;7.216;2023-04-16T15:00:33;14.80;96.90
1129;DHT22;553;51.038;7.216;2023-04-16T15:03:00;15.30;89.30
1129;DHT22;553;51.038;7.216;2023-04-16T15:05:27;14.90;89.50
1129;DHT22;553;51.038;7.216;2023-04-16T15:07:55;14.60;90.70
1129;DHT22;553;51.038;7.216;2023-04-16T15:10:21;14.50;91.10
1129;DHT22;553;51.038;7.216;2023-04-16T15:12:48;14.30;91.50
1129;DHT22;553;51.038;7.216;2023-04-16T15:15:15;14.20;92.30
1129;DHT22;553;51.038;7.216;2023-04-16T15:17:42;14.10;93.00
1129;DHT22;553;51.038;7.216;2023-04-16T15:20:09;14.10;93.00
1129;DHT22;553;51.038;7.216;2023-04-16T15:22:36;14.10;93.30
1129;DHT22;553;51.038;7.216;2023-04-16T15:25:04;14.00;93.20
1129;DHT22;553;51.038;7.216;2023-04-16T15:27:31;14.00;93.40
1129;DHT22;553;51.038;7.216;2023-04-16T15:29:59;14.10;94.80
1129;DHT22;553;51.038;7.216;2023-04-16T15:32:25;14.10;93.50
1129;DHT22;553;51.038;7.216;2023-04-16T15:34:52;14.10;93.70
1129;DHT22;553;51.038;7.216;2023-04-16T15:37:19;14.00;93.20
1129;DHT22;553;51.038;7.216;2023-04-16T15:39:45;14.00;93.30
1129;DHT22;553;51.038;7.216;2023-04-16T15:42:12;14.00;92.90
1129;DHT22;553;51.038;7.216;2023-04-16T15:44:39;14.00;93.10
1129;DHT22;553;51.038;7.216;2023-04-16T15:47:06;14.00;92.80
1129;DHT22;553;51.038;7.216;2023-04-16T15:49:34;13.90;93.20
1129;DHT22;553;51.038;7.216;2023-04-16T15:52:01;13.90;93.30
1129;DHT22;553;51.038;7.216;2023-04-16T15:54:29;14.00;93.80
1129;DHT22;553;51.038;7.216;2023-04-16T15:56:57;14.00;93.60
1129;DHT22;553;51.038;7.216;2023-04-16T15:59:25;14.00;93.90
1129;DHT22;553;51.038;7.216;2023-04-16T16:01:52;14.00;93.60
1129;DHT22;553;51.038;7.216;2023-04-16T16:04:19;14.10;93.50
1129;DHT22;553;51.038;7.216;2023-04-16T16:06:48;14.20;93.60
1129;DHT22;553;51.038;7.216;2023-04-16T16:09:15;14.20;93.20
1129;DHT22;553;51.038;7.216;2023-04-16T16:11:43;14.20;93.40
1129;DHT22;553;51.038;7.216;2023-04-16T16:14:09;14.10;94.00
1129;DHT22;553;51.038;7.216;2023-04-16T16:16:36;14.10;93.70
1129;DHT22;553;51.038;7.216;2023-04-16T16:19:03;14.00;94.00
1129;DHT22;553;51.038;7.216;2023-04-16T16:21:30;14.00;93.90
1129;DHT22;553;51.038;7.216;2023-04-16T16:23:58;13.90;94.00
1129;DHT22;553;51.038;7.216;2023-04-16T16:26:24;13.80;94.90
1129;DHT22;553;51.038;7.216;2023-04-16T16:28:51;13.80;96.10
1129;DHT22;553;51.038;7.216;2023-04-16T16:31:18;13.70;96.50
1129;DHT22;553;51.038;7.216;2023-04-16T16:33:45;13.60;98.00
1129;DHT22;553;51.038;7.216;2023-04-16T16:36:11;13.50;98.10
1129;DHT22;553;51.038;7.216;2023-04-16T16:38:38;13.50;98.30
1129;DHT22;553;51.038;7.216;2023-04-16T16:41:07;13.40;98.90